ΕΜΥ, Εθνική Μετεωρολογική Υπηρεσία - Δελτία Καιρού, Προγνώσεις

ΑΕΡΟΝΑΥΤΙΛΙΑ

GREEK AIRPORTS CODES

TAF LGSR 191700Z 1918/2018 16012KT 9999 SCT018 SCT030 BECMG 1919/1921 19012G22KT BECMG 2012/2014 20012KT PROB30 TEMPO 2012/2018 5000 RA SCT015 FEW018TCU BKN025=

EUROPEAN AIRPORTS CODES

LIRF 192020Z 09004KT CAVOK 07/05 Q1013 NOSIG=